Time;durP1;ratioP1;P1;durP2;ratioP2;P2;SDS_P1;SDS_P2;PMS_P1;PMS_P2;Temp;Humidity;BMP_temperature;BMP_pressure;BME280_temperature;BME280_humidity;BME280_pressure;Samples;Min_cycle;Max_cycle;Signal;HPM_P1;HPM_P2
2023/10/15 00:00:18;;;;;;;6.50;3.00;;;;;;;12.05;100.00;98695.42;272891;1273;22263;-81
2023/10/15 00:06:40;;;;;;;8.20;3.10;;;;;;;12.00;100.00;98708.90;272740;1272;23038;-82
2023/10/15 00:12:44;;;;;;;9.50;3.50;;;;;;;11.94;100.00;98718.93;272299;1273;22166;-81
2023/10/15 00:18:47;;;;;;;6.70;3.20;;;;;;;11.90;100.00;98717.03;272022;1269;22482;-82
2023/10/15 00:24:49;;;;;;;9.50;4.50;;;;;;;11.85;100.00;98715.55;272382;1273;22407;-81
2023/10/15 00:30:50;;;;;;;11.20;3.90;;;;;;;11.82;100.00;98715.93;272355;1273;22684;-81
2023/10/15 00:36:55;;;;;;;10.30;4.40;;;;;;;11.81;100.00;98710.20;272652;1274;22180;-82
2023/10/15 00:42:57;;;;;;;7.60;3.00;;;;;;;11.81;100.00;98712.39;272262;1273;22232;-81
2023/10/15 00:49:20;;;;;;;8.70;2.70;;;;;;;11.69;100.00;98711.29;272328;1273;22221;-81
2023/10/15 00:55:22;;;;;;;5.00;2.40;;;;;;;11.66;100.00;98720.91;272096;1272;22656;-84
2023/10/15 01:01:26;;;;;;;5.60;2.60;;;;;;;11.69;100.00;98731.73;270580;1273;23624;-82
2023/10/15 01:07:47;;;;;;;7.00;3.10;;;;;;;11.69;100.00;98739.64;271804;1273;23423;-83
2023/10/15 01:13:59;;;;;;;8.80;3.50;;;;;;;11.64;100.00;98726.21;272107;1272;22501;-82
2023/10/15 01:20:05;;;;;;;9.50;3.40;;;;;;;11.59;100.00;98699.55;272328;1272;22274;-82
2023/10/15 01:26:23;;;;;;;9.10;3.50;;;;;;;11.52;100.00;98687.56;270470;1267;22591;-83
2023/10/15 01:32:25;;;;;;;8.00;3.80;;;;;;;11.49;100.00;98685.59;272334;1272;22864;-82
2023/10/15 01:38:28;;;;;;;8.80;3.70;;;;;;;11.46;100.00;98683.86;272460;1272;23164;-82
2023/10/15 01:44:47;;;;;;;12.50;3.60;;;;;;;11.47;100.00;98694.59;272547;1272;23346;-82
2023/10/15 01:50:50;;;;;;;7.80;3.70;;;;;;;11.49;100.00;98694.20;272415;1272;23458;-82
2023/10/15 01:56:55;;;;;;;13.40;4.00;;;;;;;11.48;100.00;98691.85;272014;1272;23059;-82
2023/10/15 02:02:57;;;;;;;9.00;3.80;;;;;;;11.41;100.00;98698.16;271475;1272;22210;-82
2023/10/15 02:08:59;;;;;;;14.00;4.10;;;;;;;11.40;100.00;98697.08;272279;1272;22333;-82
2023/10/15 02:15:15;;;;;;;9.90;3.90;;;;;;;11.35;100.00;98686.89;271427;1273;22203;-82
2023/10/15 02:21:19;;;;;;;10.20;3.90;;;;;;;11.23;100.00;98685.20;272245;1272;23484;-82
2023/10/15 02:27:25;;;;;;;11.60;4.20;;;;;;;11.26;100.00;98691.00;272269;1272;22970;-82
2023/10/15 02:33:27;;;;;;;10.00;3.50;;;;;;;11.28;100.00;98688.81;271808;1272;22283;-82
2023/10/15 02:39:36;;;;;;;12.20;3.80;;;;;;;11.27;100.00;98691.16;272347;1272;23625;-82
2023/10/15 02:45:43;;;;;;;11.70;3.10;;;;;;;11.25;100.00;98692.48;272328;1272;22367;-82
2023/10/15 02:51:48;;;;;;;13.10;3.20;;;;;;;11.26;100.00;98672.60;272606;1265;23380;-82
2023/10/15 02:57:51;;;;;;;10.00;3.20;;;;;;;11.25;100.00;98675.58;272364;1272;22246;-82
2023/10/15 03:03:54;;;;;;;5.80;2.90;;;;;;;11.13;100.00;98674.05;272521;1272;22203;-83
2023/10/15 03:09:57;;;;;;;8.30;3.20;;;;;;;11.09;100.00;98723.73;272526;1272;22208;-82
2023/10/15 03:16:07;;;;;;;10.30;4.60;;;;;;;11.06;100.00;98727.80;272278;1268;22226;-82
2023/10/15 03:22:13;;;;;;;11.30;3.30;;;;;;;11.01;100.00;98724.95;272286;1272;22195;-83
2023/10/15 03:28:15;;;;;;;12.70;3.90;;;;;;;11.00;100.00;98738.71;272239;1271;22169;-83
2023/10/15 03:34:22;;;;;;;12.70;4.20;;;;;;;10.98;100.00;98729.63;272139;1271;22321;-82
2023/10/15 03:40:40;;;;;;;13.70;3.50;;;;;;;10.96;100.00;98740.81;272124;1272;22098;-82
2023/10/15 03:46:44;;;;;;;11.40;4.50;;;;;;;10.91;100.00;98744.54;272785;1272;22317;-82
2023/10/15 03:53:05;;;;;;;14.20;3.50;;;;;;;10.85;100.00;98726.73;271759;1272;138260;-82
2023/10/15 03:59:08;;;;;;;14.90;3.70;;;;;;;10.82;100.00;98743.23;271878;1268;22375;-82
2023/10/15 04:05:14;;;;;;;12.80;3.50;;;;;;;10.77;100.00;98725.20;272400;1273;22192;-82
2023/10/15 04:11:29;;;;;;;9.50;3.70;;;;;;;10.71;100.00;98732.91;272356;1272;22425;-83
2023/10/15 04:17:31;;;;;;;10.60;3.50;;;;;;;10.64;100.00;98728.96;272244;1273;22451;-82
2023/10/15 04:23:34;;;;;;;9.00;3.10;;;;;;;10.59;100.00;98740.34;272526;1273;22445;-82
2023/10/15 04:29:55;;;;;;;13.70;3.50;;;;;;;10.56;100.00;98762.67;270921;1273;23716;-82
2023/10/15 04:36:01;;;;;;;11.70;3.40;;;;;;;10.49;100.00;98785.70;272545;1273;22252;-82
2023/10/15 04:42:08;;;;;;;10.50;2.80;;;;;;;10.43;100.00;98801.05;272331;1273;22496;-82
2023/10/15 04:48:14;;;;;;;10.20;2.70;;;;;;;10.36;100.00;98807.80;272320;1274;22198;-82
2023/10/15 04:54:30;;;;;;;12.60;3.00;;;;;;;10.25;100.00;98807.70;272465;1272;22261;-82
2023/10/15 05:00:35;;;;;;;15.00;3.40;;;;;;;10.11;100.00;98810.38;272230;1272;22325;-82
2023/10/15 05:06:38;;;;;;;8.70;2.80;;;;;;;10.04;100.00;98805.27;271938;1274;22427;-82
2023/10/15 05:12:56;;;;;;;10.50;3.30;;;;;;;9.98;100.00;98813.09;271535;1272;22933;-82
2023/10/15 05:18:59;;;;;;;11.20;2.50;;;;;;;9.96;100.00;98811.35;272472;1272;22406;-82
2023/10/15 05:25:04;;;;;;;9.20;2.40;;;;;;;9.83;100.00;98812.46;272255;1268;22833;-84
2023/10/15 05:31:06;;;;;;;11.20;3.70;;;;;;;9.74;100.00;98806.11;272329;1272;22942;-83
2023/10/15 05:37:08;;;;;;;6.80;2.40;;;;;;;9.70;100.00;98804.19;272835;1273;22223;-82
2023/10/15 05:43:13;;;;;;;12.10;2.70;;;;;;;9.66;100.00;98802.73;272536;1273;23476;-83
2023/10/15 05:49:14;;;;;;;12.30;2.50;;;;;;;9.57;100.00;98802.41;272851;1272;23226;-83
2023/10/15 05:55:19;;;;;;;7.30;2.60;;;;;;;9.60;100.00;98809.31;271823;1272;23032;-82
2023/10/15 06:01:21;;;;;;;8.40;2.70;;;;;;;9.94;100.00;98810.71;270670;1272;22194;-82
2023/10/15 06:07:23;;;;;;;10.50;2.50;;;;;;;10.42;100.00;98815.59;271035;1257;24139;-82
2023/10/15 06:13:29;;;;;;;9.90;3.00;;;;;;;10.73;100.00;98834.92;271010;1272;22331;-83
2023/10/15 06:19:31;;;;;;;12.30;3.10;;;;;;;10.88;100.00;98844.04;271509;1272;22341;-82
2023/10/15 06:25:38;;;;;;;9.80;2.00;;;;;;;10.85;100.00;98852.15;271581;1269;24332;-83
2023/10/15 06:31:40;;;;;;;;;;;;;;;10.69;100.00;98858.13;270903;1272;23773;-82
2023/10/15 06:37:43;;;;;;;9.40;2.00;;;;;;;10.54;100.00;98866.84;271626;1270;22868;-82
2023/10/15 06:43:47;;;;;;;9.90;2.20;;;;;;;10.46;100.00;98874.27;272912;1274;22192;-82
2023/10/15 06:49:53;;;;;;;12.30;2.50;;;;;;;10.39;100.00;98878.80;272302;1272;22673;-83
2023/10/15 06:56:07;;;;;;;8.20;1.70;;;;;;;10.31;100.00;98881.85;271799;1272;22538;-82
2023/10/15 07:02:13;;;;;;;9.50;2.30;;;;;;;10.40;100.00;98887.73;272292;1272;22326;-83
2023/10/15 07:08:31;;;;;;;6.50;1.90;;;;;;;10.45;100.00;98892.01;272263;1272;22561;-84
2023/10/15 07:14:33;;;;;;;9.10;2.30;;;;;;;10.28;99.89;98896.21;272585;1265;22486;-84
2023/10/15 07:20:36;;;;;;;8.20;2.20;;;;;;;10.15;99.97;98900.20;272795;1273;22220;-82
2023/10/15 07:26:40;;;;;;;10.30;2.30;;;;;;;10.28;100.00;98899.27;271606;1272;22575;-83
2023/10/15 07:32:44;;;;;;;10.30;2.50;;;;;;;10.37;99.82;98905.21;270907;1272;22319;-83
2023/10/15 07:38:46;;;;;;;10.40;2.40;;;;;;;10.34;99.43;98904.55;272602;1272;25339;-81
2023/10/15 07:44:51;;;;;;;5.50;1.80;;;;;;;10.39;99.55;98900.61;272321;1274;23127;-82
2023/10/15 07:50:54;;;;;;;6.50;1.80;;;;;;;10.40;98.88;98895.70;272402;1272;22856;-82
2023/10/15 07:56:58;;;;;;;6.90;1.80;;;;;;;10.39;98.19;98896.94;272053;1272;22439;-83
2023/10/15 08:03:10;;;;;;;7.70;2.20;;;;;;;10.56;98.26;98890.16;272525;1273;22154;-82
2023/10/15 08:09:13;;;;;;;8.70;1.70;;;;;;;10.78;97.55;98883.95;272692;1268;22233;-82
2023/10/15 08:15:18;;;;;;;11.10;2.10;;;;;;;10.87;96.88;98889.10;272598;1272;23030;-83
2023/10/15 08:21:21;;;;;;;7.60;2.10;;;;;;;11.21;97.09;98893.11;272437;1272;23628;-83
2023/10/15 08:27:24;;;;;;;5.20;1.90;;;;;;;11.38;95.16;98888.14;272644;1272;23230;-83
2023/10/15 08:33:26;;;;;;;9.10;1.80;;;;;;;11.87;95.16;98893.65;272146;1272;22259;-84
2023/10/15 08:39:29;;;;;;;7.30;2.60;;;;;;;12.46;94.54;98895.89;271510;1272;22219;-84
2023/10/15 08:45:34;;;;;;;10.30;2.70;;;;;;;12.69;93.51;98897.96;272313;1273;23265;-82
2023/10/15 08:51:39;;;;;;;7.20;2.00;;;;;;;12.81;92.64;98898.22;270130;1273;22513;-83
2023/10/15 08:57:41;;;;;;;6.30;2.00;;;;;;;12.96;91.69;98898.86;271607;1272;22578;-83
2023/10/15 09:03:43;;;;;;;9.50;1.70;;;;;;;12.99;90.24;98893.36;270015;1273;22467;-82
2023/10/15 09:09:51;;;;;;;7.00;2.40;;;;;;;12.88;89.45;98891.86;270088;1272;22728;-83
2023/10/15 09:16:13;;;;;;;8.40;1.50;;;;;;;12.66;88.83;98887.61;269898;1273;22556;-84
2023/10/15 09:22:17;;;;;;;8.00;1.40;;;;;;;12.52;88.58;98889.63;269914;1273;24027;-84
2023/10/15 09:28:19;;;;;;;7.90;1.60;;;;;;;12.38;87.67;98888.58;270337;1272;22534;-83
2023/10/15 09:34:23;;;;;;;7.00;2.10;;;;;;;12.30;87.43;98879.70;272142;1273;23016;-83
2023/10/15 09:40:32;;;;;;;6.40;2.40;;;;;;;12.24;87.26;98877.25;270908;1272;22552;-84
2023/10/15 09:46:34;;;;;;;7.80;2.20;;;;;;;12.18;87.14;98872.92;269943;1273;22553;-83
2023/10/15 09:52:57;;;;;;;6.70;1.70;;;;;;;12.14;86.42;98873.39;269989;1273;22323;-83
2023/10/15 09:59:13;;;;;;;5.80;1.70;;;;;;;12.10;85.95;98867.81;271475;1272;22866;-83
2023/10/15 10:05:44;;;;;;;;;;;;;;;12.01;84.80;98858.38;273025;1277;22561;-83
2023/10/15 10:12:19;;;;;;;4.60;1.90;;;;;;;11.87;83.77;98856.13;272897;1273;22186;-83
2023/10/15 10:18:27;;;;;;;6.60;1.80;;;;;;;11.73;83.13;98841.42;271757;1272;25258;-82
2023/10/15 10:24:54;;;;;;;;;;;;;;;;;;;;;
2023/10/15 10:31:18;;;;;;;5.50;1.90;;;;;;;12.04;83.74;98829.61;272603;1272;22322;-84
2023/10/15 10:37:22;;;;;;;4.90;1.30;;;;;;;12.16;82.79;98828.06;272077;1272;22275;-83
2023/10/15 10:43:24;;;;;;;5.70;1.80;;;;;;;12.12;82.22;98825.16;271466;1272;23808;-83
2023/10/15 10:49:40;;;;;;;12.80;1.60;;;;;;;12.00;81.56;98820.75;270337;1272;22326;-84
2023/10/15 10:55:42;;;;;;;6.00;2.00;;;;;;;11.92;80.61;98812.73;271988;1272;22403;-83
2023/10/15 11:01:50;;;;;;;9.40;1.30;;;;;;;11.73;79.78;98814.23;272088;1272;22230;-83
2023/10/15 11:08:16;;;;;;;7.20;1.30;;;;;;;11.62;77.96;98810.41;271049;1273;24216;-83
2023/10/15 11:14:39;;;;;;;;;;;;;;;;;;;;;
2023/10/15 11:20:53;;;;;;;3.60;1.20;;;;;;;11.61;76.77;98812.36;271946;1264;22543;-85
2023/10/15 11:26:59;;;;;;;6.50;1.70;;;;;;;11.66;77.49;98809.66;271718;1272;22253;-83
2023/10/15 11:33:01;;;;;;;5.80;1.50;;;;;;;11.75;77.67;98804.70;271997;1272;22315;-83
2023/10/15 11:39:17;;;;;;;5.90;1.80;;;;;;;11.77;77.22;98800.14;271946;1273;22394;-83
2023/10/15 11:45:33;;;;;;;5.80;1.20;;;;;;;11.74;76.34;98790.27;272111;1272;22464;-83
2023/10/15 11:51:35;;;;;;;5.10;1.60;;;;;;;11.68;75.83;98783.27;272009;1272;24254;-83
2023/10/15 11:57:39;;;;;;;4.10;1.60;;;;;;;11.75;75.44;98791.91;271901;1272;22339;-83
2023/10/15 12:03:47;;;;;;;6.00;1.70;;;;;;;11.77;75.00;98801.86;271997;1273;22329;-84
2023/10/15 12:10:14;;;;;;;6.70;1.70;;;;;;;11.79;75.05;98807.98;271975;1272;23243;-83
2023/10/15 12:16:16;;;;;;;5.90;1.60;;;;;;;11.73;74.40;98804.45;272046;1273;22312;-83
2023/10/15 12:22:45;;;;;;;6.10;1.60;;;;;;;11.71;74.64;98796.52;271674;1270;23167;-83
2023/10/15 12:29:06;;;;;;;3.80;1.50;;;;;;;11.74;74.56;98796.85;272297;1273;22343;-84
2023/10/15 12:35:27;;;;;;;7.50;1.60;;;;;;;11.81;75.18;98807.85;272227;1266;23770;-84
2023/10/15 12:41:59;;;;;;;6.10;2.00;;;;;;;11.85;74.46;98799.47;272102;1272;22760;-83
2023/10/15 12:48:18;;;;;;;8.10;1.70;;;;;;;11.81;73.80;98807.38;272150;1273;22301;-82
2023/10/15 12:54:20;;;;;;;6.70;1.80;;;;;;;11.74;73.88;98829.14;271989;1272;22378;-83
2023/10/15 13:00:43;;;;;;;6.00;2.20;;;;;;;11.69;73.41;98826.91;271914;1272;22336;-83
2023/10/15 13:06:45;;;;;;;3.30;1.20;;;;;;;11.65;73.12;98834.09;271897;1272;22831;-83
2023/10/15 13:12:48;;;;;;;6.20;1.40;;;;;;;11.63;72.79;98831.88;272148;1272;23427;-84
2023/10/15 13:18:52;;;;;;;3.70;1.70;;;;;;;11.53;72.00;98812.08;271818;1271;22330;-85
2023/10/15 13:24:56;;;;;;;4.60;1.50;;;;;;;11.52;71.99;98787.02;271945;1271;22406;-82
2023/10/15 13:30:58;;;;;;;7.30;1.40;;;;;;;11.58;72.43;98782.73;272206;1271;22298;-84
2023/10/15 13:37:10;;;;;;;11.20;2.20;;;;;;;11.60;72.29;98785.41;271853;1272;22322;-83
2023/10/15 13:43:12;;;;;;;6.10;1.40;;;;;;;11.50;72.04;98807.08;271835;1272;22718;-83
2023/10/15 13:49:14;;;;;;;5.90;1.60;;;;;;;11.40;71.67;98808.19;271994;1272;22627;-82
2023/10/15 13:55:21;;;;;;;5.10;1.60;;;;;;;11.36;72.02;98796.66;272002;1272;22341;-82
2023/10/15 14:01:26;;;;;;;4.20;1.70;;;;;;;11.35;71.26;98790.01;271936;1271;22337;-82
2023/10/15 14:07:28;;;;;;;5.40;1.90;;;;;;;11.32;71.28;98796.58;271848;1266;22369;-83
2023/10/15 14:13:29;;;;;;;4.70;1.60;;;;;;;11.28;71.21;98810.71;272265;1272;22343;-83
2023/10/15 14:19:33;;;;;;;3.40;1.50;;;;;;;11.28;71.43;98802.56;272183;1272;24011;-83
2023/10/15 14:25:36;;;;;;;6.40;2.00;;;;;;;11.27;71.00;98787.30;272091;1272;22473;-84
2023/10/15 14:31:39;;;;;;;8.10;1.90;;;;;;;11.21;70.60;98781.88;271985;1272;23129;-83
2023/10/15 14:37:41;;;;;;;4.20;1.40;;;;;;;11.18;70.83;98785.85;271794;1271;22443;-83
2023/10/15 14:43:44;;;;;;;5.10;1.70;;;;;;;11.23;71.45;98774.44;271685;1272;22405;-84
2023/10/15 14:49:46;;;;;;;6.80;2.40;;;;;;;11.14;70.67;98775.80;271963;1272;22325;-83
2023/10/15 14:55:50;;;;;;;5.20;1.50;;;;;;;11.01;70.20;98784.04;272028;1268;22338;-83
2023/10/15 15:01:52;;;;;;;6.10;2.00;;;;;;;10.87;70.05;98789.19;272116;1271;22364;-83
2023/10/15 15:07:53;;;;;;;9.80;2.40;;;;;;;10.75;70.19;98792.08;272102;1272;23869;-84
2023/10/15 15:13:56;;;;;;;8.70;2.20;;;;;;;10.64;70.32;98794.65;272157;1272;22376;-82
2023/10/15 15:20:00;;;;;;;5.40;1.70;;;;;;;10.53;69.54;98798.95;271911;1271;22370;-85
2023/10/15 15:26:08;;;;;;;10.20;2.20;;;;;;;10.44;69.62;98789.81;271980;1272;22425;-83
2023/10/15 15:32:10;;;;;;;4.20;1.50;;;;;;;10.35;70.17;98792.39;271986;1269;22558;-84
2023/10/15 15:38:14;;;;;;;8.60;2.20;;;;;;;10.25;70.26;98791.52;272172;1266;22328;-84
2023/10/15 15:44:26;;;;;;;13.20;3.00;;;;;;;10.11;70.80;98790.12;271894;1272;22400;-82
2023/10/15 15:50:29;;;;;;;6.10;2.60;;;;;;;10.00;71.76;98796.88;271791;1272;373839;-83
2023/10/15 15:56:34;;;;;;;8.70;2.40;;;;;;;9.88;72.02;98805.02;272053;1272;23131;-83
2023/10/15 16:02:38;;;;;;;6.70;2.20;;;;;;;9.74;72.60;98817.67;271981;1272;23446;-84
2023/10/15 16:08:41;;;;;;;8.80;2.50;;;;;;;9.52;72.46;98821.31;271833;1272;22952;-83
2023/10/15 16:14:43;;;;;;;9.40;2.70;;;;;;;9.28;72.58;98824.52;271712;1268;23508;-84
2023/10/15 16:20:46;;;;;;;7.10;2.50;;;;;;;9.08;73.34;98833.23;271993;1271;22382;-84
2023/10/15 16:26:53;;;;;;;6.30;2.40;;;;;;;8.76;73.13;98841.07;272123;1272;22879;-85
2023/10/15 16:33:36;;;;;;;11.10;3.60;;;;;;;8.55;73.66;98847.60;271845;1272;23232;-83
2023/10/15 16:40:02;;;;;;;12.40;4.10;;;;;;;8.38;74.03;98854.39;272063;1272;23633;-83
2023/10/15 16:46:16;;;;;;;11.70;4.80;;;;;;;8.31;74.55;98857.47;271975;1271;22764;-83
2023/10/15 16:52:25;;;;;;;9.20;4.80;;;;;;;8.16;74.89;98856.23;272100;1272;23656;-83
2023/10/15 16:58:34;;;;;;;16.30;5.70;;;;;;;8.13;76.00;98864.11;271944;1272;22844;-83
2023/10/15 17:04:38;;;;;;;10.70;4.60;;;;;;;8.10;76.09;98867.58;272190;1272;22356;-84
2023/10/15 17:11:00;;;;;;;9.30;4.20;;;;;;;8.06;76.81;98869.52;272215;1272;22350;-82
2023/10/15 17:17:05;;;;;;;10.40;4.10;;;;;;;7.98;77.53;98870.38;271819;1272;23190;-82
2023/10/15 17:23:35;;;;;;;12.70;4.30;;;;;;;7.83;77.96;98875.53;271914;1272;22347;-84
2023/10/15 17:30:09;;;;;;;14.20;4.70;;;;;;;7.74;78.16;98876.84;271770;1272;22569;-82
2023/10/15 17:36:20;;;;;;;12.60;4.60;;;;;;;7.55;78.32;98879.70;271748;1272;22589;-82
2023/10/15 17:42:22;;;;;;;16.30;5.90;;;;;;;7.27;78.74;98888.36;272016;1272;22409;-83
2023/10/15 17:48:25;;;;;;;12.40;5.40;;;;;;;7.16;79.40;98896.73;271103;1272;23875;-82
2023/10/15 17:54:28;;;;;;;16.20;7.40;;;;;;;6.99;79.66;98896.05;271219;1266;22386;-82
2023/10/15 18:00:32;;;;;;;17.10;8.10;;;;;;;6.89;80.35;98906.84;272191;1272;23634;-83
2023/10/15 18:06:36;;;;;;;18.90;8.60;;;;;;;6.78;80.08;98912.54;272244;1268;22919;-83
2023/10/15 18:12:39;;;;;;;17.10;7.40;;;;;;;6.67;81.03;98919.04;271990;1271;22420;-83
2023/10/15 18:19:00;;;;;;;;;;;;;;;;;;;;;
2023/10/15 18:25:12;;;;;;;17.90;7.10;;;;;;;6.82;82.62;98929.29;271726;1272;22505;-85
2023/10/15 18:31:25;;;;;;;17.00;8.00;;;;;;;7.00;84.14;98939.21;271630;1268;22811;-83
2023/10/15 18:37:28;;;;;;;15.40;7.80;;;;;;;7.08;84.20;98952.48;271371;1266;23312;-84
2023/10/15 18:43:45;;;;;;;22.80;8.30;;;;;;;7.10;83.89;98956.55;271513;1272;22451;-83
2023/10/15 18:49:50;;;;;;;17.30;7.60;;;;;;;7.02;84.02;98966.15;270866;1272;22336;-83
2023/10/15 18:55:57;;;;;;;19.50;8.30;;;;;;;6.99;85.06;98978.92;272492;1272;22326;-84
2023/10/15 19:02:13;;;;;;;17.30;8.60;;;;;;;7.02;85.51;98998.42;271384;1265;22296;-84
2023/10/15 19:09:34;;;;;;;19.00;9.70;;;;;;;7.09;85.83;99010.98;273180;1270;22238;-84
2023/10/15 19:16:05;;;;;;;29.60;12.70;;;;;;;7.15;86.71;99022.48;272203;1268;22344;-83
2023/10/15 19:22:19;;;;;;;23.60;10.70;;;;;;;7.18;86.69;99029.71;270738;1272;23408;-84
2023/10/15 19:28:51;;;;;;;24.20;10.10;;;;;;;7.19;86.80;99034.96;271865;1272;22221;-84
2023/10/15 19:34:53;;;;;;;23.10;8.80;;;;;;;7.24;86.97;99040.85;272165;1272;23524;-83
2023/10/15 19:40:55;;;;;;;21.70;8.80;;;;;;;7.26;87.04;99042.83;272333;1272;22299;-85
2023/10/15 19:47:08;;;;;;;20.80;8.20;;;;;;;7.26;87.09;99045.09;272240;1272;24003;-83
2023/10/15 19:53:11;;;;;;;17.90;8.10;;;;;;;7.27;87.17;99047.77;271631;1272;22178;-83
2023/10/15 19:59:14;;;;;;;17.00;7.80;;;;;;;7.29;87.54;99049.52;270979;1270;22602;-84
2023/10/15 20:05:17;;;;;;;18.40;8.20;;;;;;;7.34;87.77;99050.09;272912;1271;22233;-83
2023/10/15 20:11:19;;;;;;;24.30;9.40;;;;;;;7.37;88.12;99049.34;272081;1265;22226;-83
2023/10/15 20:17:22;;;;;;;21.30;8.00;;;;;;;7.37;87.97;99049.64;271531;1272;23121;-84
2023/10/15 20:23:24;;;;;;;20.80;8.40;;;;;;;7.33;87.82;99051.10;272426;1272;22181;-82
2023/10/15 20:29:26;;;;;;;20.90;7.60;;;;;;;7.18;87.63;99063.23;272561;1272;22307;-83
2023/10/15 20:35:31;;;;;;;22.70;9.10;;;;;;;7.05;87.87;99070.06;272328;1272;22336;-84
2023/10/15 20:41:33;;;;;;;15.50;6.40;;;;;;;6.97;88.30;99079.27;272523;1272;22696;-84
2023/10/15 20:47:41;;;;;;;21.70;6.40;;;;;;;6.99;89.24;99080.00;271630;1269;22216;-83
2023/10/15 20:53:44;;;;;;;14.40;5.00;;;;;;;7.02;89.37;99079.70;272254;1272;23730;-83
2023/10/15 20:59:49;;;;;;;11.10;4.00;;;;;;;7.03;89.66;99082.69;272173;1272;24069;-83
2023/10/15 21:05:55;;;;;;;10.60;4.10;;;;;;;7.01;89.63;99086.27;271085;1268;25093;-83
2023/10/15 21:11:57;;;;;;;11.80;3.50;;;;;;;6.95;89.68;99092.95;271022;1272;22527;-84
2023/10/15 21:18:03;;;;;;;10.10;2.90;;;;;;;6.92;89.62;99100.11;271672;1272;22248;-84
2023/10/15 21:24:07;;;;;;;9.50;3.10;;;;;;;6.91;90.00;99098.91;272516;1272;22333;-84
2023/10/15 21:30:33;;;;;;;8.80;3.10;;;;;;;6.86;90.13;99098.86;272394;1272;23297;-84
2023/10/15 21:36:36;;;;;;;8.10;2.90;;;;;;;6.79;90.40;99102.19;271566;1266;22213;-84
2023/10/15 21:42:56;;;;;;;7.90;3.10;;;;;;;6.82;91.09;99102.02;271117;1272;22557;-83
2023/10/15 21:49:20;;;;;;;14.10;4.20;;;;;;;6.89;91.43;99105.55;269948;1272;22634;-84
2023/10/15 21:55:22;;;;;;;10.70;5.20;;;;;;;6.85;90.83;99099.45;271822;1272;22350;-84
2023/10/15 22:01:25;;;;;;;12.40;5.00;;;;;;;6.74;90.59;99109.24;272191;1272;22662;-83
2023/10/15 22:07:28;;;;;;;13.60;4.40;;;;;;;6.69;91.10;99115.88;271809;1266;22578;-83
2023/10/15 22:13:30;;;;;;;10.20;4.00;;;;;;;6.69;91.89;99119.46;271854;1272;23316;-82
2023/10/15 22:19:33;;;;;;;12.30;4.50;;;;;;;6.72;92.36;99119.33;269964;1272;22574;-83
2023/10/15 22:25:35;;;;;;;9.60;4.00;;;;;;;6.72;92.20;99116.45;271186;1273;22548;-82
2023/10/15 22:31:40;;;;;;;13.60;4.30;;;;;;;6.70;92.26;99120.17;271100;1272;22288;-82
2023/10/15 22:37:44;;;;;;;8.80;3.60;;;;;;;6.65;92.34;99125.33;272683;1272;22334;-84
2023/10/15 22:43:51;;;;;;;13.00;3.70;;;;;;;6.69;92.58;99127.55;272682;1272;22520;-84
2023/10/15 22:49:53;;;;;;;9.10;4.40;;;;;;;6.72;92.51;99132.61;272705;1272;22716;-83
2023/10/15 22:55:58;;;;;;;9.60;3.60;;;;;;;6.75;92.75;99144.04;272814;1274;22186;-83
2023/10/15 23:02:02;;;;;;;5.60;3.00;;;;;;;6.75;92.53;99151.66;271428;1272;25252;-82
2023/10/15 23:08:06;;;;;;;10.80;3.40;;;;;;;6.72;92.71;99152.65;270676;1272;22561;-82
2023/10/15 23:14:08;;;;;;;11.70;3.80;;;;;;;6.65;92.72;99162.55;269477;1272;22504;-83
2023/10/15 23:26:44;;;;;;;;;;;;;;;;;;;;;
2023/10/15 23:33:04;;;;;;;16.20;5.50;;;;;;;6.48;93.70;99186.90;270988;1272;23878;-83
2023/10/15 23:39:15;;;;;;;10.40;5.10;;;;;;;6.38;93.50;99197.80;270850;1272;22538;-83
2023/10/15 23:45:27;;;;;;;9.10;4.10;;;;;;;6.33;93.77;99204.27;272559;1272;22314;-84
2023/10/15 23:51:32;;;;;;;11.10;3.80;;;;;;;6.34;94.00;99204.46;272261;1272;23382;-84
2023/10/15 23:57:50;;;;;;;11.80;3.90;;;;;;;6.33;94.07;99207.84;272673;1274;22220;-84
